Terminal Aerodrome Forecast
Issued by NWS

Home | Current Version | Previous Version | Text Only | Print | Product List | Glossary On
Versions: 1 2 3 4 5 6 7 8 9 10 11 12 13 14 15 16 17 18 19 20 21 22 23 24 25
437
FTUS41 KBUF 080303 AAA
TAFJHW
TAF AMD
KJHW 080303Z 0803/0824 17005KT P6SM BKN200
     FM080400 17007KT P6SM BKN110
     FM081500 15010KT P6SM OVC060
     FM082100 15009KT P6SM VCSH OVC060
      AMD LTD TO CLD VIS AND WIND=

USA.gov is the U.S. government's official web portal to all federal, state and local government web resources and services.